Weather at St Louis Lambert International Airport

Public forecast

Using degrees Fahrenheit for public forecast. Weather courtesy of forecast.io.

Current aviation weather report (METAR) for St Louis Lambert International Airport

Retrieved 2022/05/19 07:51 UTC (39 minutes ago):

KSTL 190751Z 00000KT 10SM CLR 19/17 A2978 RMK AO2 SLP074 T01940167

Aviation forecast (TAF) for St Louis Lambert International Airport

Retrieved 2022/05/19 06:22 UTC (2 hours ago):

TAF KSTL 190520Z 1906/2012 27004KT P6SM FEW250 FM190800 00000KT 4SM BR FEW250 FM191200 VRB03KT P6SM SCT200 FM192000 17012KT P6SM BKN045